createdAt,value
2019-04-25T00:00:52.850Z,35.19
2019-04-25T00:03:22.359Z,35.17
2019-04-25T00:05:50.167Z,35.23
2019-04-25T00:08:17.882Z,35.23
2019-04-25T00:10:45.601Z,35.19
2019-04-25T00:13:13.709Z,35.45
2019-04-25T00:15:41.941Z,35.47
2019-04-25T00:18:11.931Z,35.21
2019-04-25T00:20:43.611Z,35.41
2019-04-25T00:23:15.103Z,35.25
2019-04-25T00:26:01.341Z,35.43
2019-04-25T00:28:29.150Z,36.01
2019-04-25T00:30:56.868Z,35.14
2019-04-25T00:33:24.583Z,35.27
2019-04-25T00:35:52.767Z,35.27
2019-04-25T00:38:22.097Z,35.78
2019-04-25T00:40:50.593Z,36.20
2019-04-25T00:43:19.464Z,36.14
2019-04-25T00:45:47.479Z,35.77
2019-04-25T00:48:15.267Z,35.94
2019-04-25T00:50:43.658Z,35.79
2019-04-25T00:53:12.265Z,36.06
2019-04-25T00:55:41.406Z,36.26
2019-04-25T00:58:15.396Z,35.33
2019-04-25T01:01:02.051Z,35.40
2019-04-25T01:03:31.709Z,35.35
2019-04-25T01:05:59.526Z,35.32
2019-04-25T01:08:27.275Z,35.68
2019-04-25T01:10:55.004Z,35.72
2019-04-25T01:13:22.748Z,35.72
2019-04-25T01:15:52.179Z,35.91
2019-04-25T01:18:19.971Z,35.50
2019-04-25T01:20:49.052Z,35.53
2019-04-25T01:23:16.768Z,35.88
2019-04-25T01:25:45.896Z,36.19
2019-04-25T01:28:13.948Z,36.51
2019-04-25T01:30:41.975Z,36.07
2019-04-25T01:33:10.473Z,35.67
2019-04-25T01:35:44.920Z,35.43
2019-04-25T01:38:41.110Z,35.51
2019-04-25T01:41:28.178Z,35.56
2019-04-25T01:43:59.676Z,35.42
2019-04-25T01:46:27.727Z,35.59
2019-04-25T01:48:55.475Z,35.54
2019-04-25T01:51:24.029Z,35.78
2019-04-25T01:53:52.619Z,35.59
2019-04-25T01:56:22.986Z,35.43
2019-04-25T01:58:51.145Z,36.22
2019-04-25T02:01:19.309Z,35.86
2019-04-25T02:03:47.246Z,35.85
2019-04-25T02:06:14.967Z,35.63
2019-04-25T02:08:44.020Z,35.84
2019-04-25T02:11:26.662Z,35.74
2019-04-25T02:13:54.969Z,35.90
2019-04-25T02:16:23.845Z,36.36
2019-04-25T02:18:52.437Z,36.27
2019-04-25T02:21:21.062Z,36.21
2019-04-25T02:23:48.831Z,36.68
2019-04-25T02:26:18.545Z,36.08
2019-04-25T02:28:46.299Z,36.18
2019-04-25T02:31:17.929Z,36.28
2019-04-25T02:33:44.298Z,36.21
2019-04-25T02:36:14.459Z,36.33
2019-04-25T02:38:44.012Z,36.56
2019-04-25T02:41:11.059Z,36.23
2019-04-25T02:43:38.797Z,36.38
2019-04-25T02:46:31.769Z,36.28
2019-04-25T02:49:33.048Z,36.47
2019-04-25T02:52:18.084Z,36.25
2019-04-25T02:54:45.476Z,36.36
2019-04-25T02:57:14.623Z,36.72
2019-04-25T02:59:44.829Z,36.49
2019-04-25T03:02:12.070Z,36.51
2019-04-25T03:04:39.870Z,36.66
2019-04-25T03:07:11.047Z,36.38
2019-04-25T03:09:37.053Z,36.43
2019-04-25T03:12:06.601Z,36.41
2019-04-25T03:14:35.203Z,36.56
2019-04-25T03:17:05.236Z,36.50
2019-04-25T03:19:50.542Z,36.66
2019-04-25T03:22:21.309Z,36.46
2019-04-25T03:24:49.111Z,36.63
2019-04-25T03:27:16.855Z,36.38
2019-04-25T03:29:45.746Z,36.54
2019-04-25T03:32:18.749Z,36.88
2019-04-25T03:34:43.499Z,37.08
2019-04-25T03:37:11.550Z,36.81
2019-04-25T03:39:39.279Z,36.77
2019-04-25T03:42:07.767Z,36.94
2019-04-25T03:44:35.751Z,36.66
2019-04-25T03:47:05.925Z,36.87
2019-04-25T03:49:33.671Z,36.83
2019-04-25T03:52:02.285Z,36.52
2019-04-25T03:54:30.558Z,36.66
2019-04-25T03:56:58.272Z,36.78
2019-04-25T03:59:26.002Z,36.62
2019-04-25T04:01:54.236Z,36.62
2019-04-25T04:04:23.579Z,36.89
2019-04-25T04:06:51.558Z,36.81
2019-04-25T04:09:19.360Z,37.01
2019-04-25T04:11:47.070Z,37.03
2019-04-25T04:14:15.713Z,37.07
2019-04-25T04:17:05.095Z,37.25
2019-04-25T04:19:36.884Z,37.29
2019-04-25T04:22:15.424Z,37.91
2019-04-25T04:24:47.859Z,37.57
2019-04-25T04:27:17.620Z,37.28
2019-04-25T04:29:45.405Z,37.04
2019-04-25T04:32:14.863Z,36.69
2019-04-25T04:34:43.551Z,36.69
2019-04-25T04:37:13.963Z,36.31
2019-04-25T04:39:43.608Z,36.29
2019-04-25T04:42:11.679Z,36.33
2019-04-25T04:44:39.543Z,36.51
2019-04-25T04:47:08.468Z,36.84
2019-04-25T04:49:36.243Z,37.25
2019-04-25T04:52:06.138Z,37.08
2019-04-25T04:54:34.441Z,37.55
2019-04-25T04:57:16.175Z,37.06
2019-04-25T04:59:31.786Z,36.40
2019-04-25T05:02:24.496Z,36.57
2019-04-25T05:05:19.262Z,37.04
2019-04-25T05:07:49.245Z,37.27
2019-04-25T05:10:18.690Z,36.87
2019-04-25T05:12:46.620Z,37.17
2019-04-25T05:15:16.251Z,37.01
2019-04-25T05:17:44.076Z,36.52
2019-04-25T05:20:12.022Z,36.77
2019-04-25T05:22:40.623Z,36.83
2019-04-25T05:25:08.382Z,38.44
2019-04-25T05:27:50.724Z,36.51
2019-04-25T05:30:07.002Z,36.98
2019-04-25T05:32:34.770Z,38.15
2019-04-25T05:35:03.331Z,36.45
2019-04-25T05:37:31.155Z,36.60
2019-04-25T05:39:58.862Z,36.44
2019-04-25T05:42:47.651Z,36.68
2019-04-25T05:45:17.505Z,37.04
2019-04-25T05:47:45.286Z,39.15
2019-04-25T05:50:13.889Z,38.29
2019-04-25T05:52:41.724Z,37.70
2019-04-25T05:55:09.440Z,37.15
2019-04-25T05:57:45.681Z,39.39
2019-04-25T06:00:07.774Z,37.22
2019-04-25T06:02:35.510Z,39.87
2019-04-25T06:05:03.610Z,38.60
2019-04-25T06:07:31.347Z,37.65
2019-04-25T06:10:21.759Z,40.01
2019-04-25T06:13:07.330Z,37.97
2019-04-25T06:15:35.406Z,38.20
2019-04-25T06:18:30.830Z,38.10
2019-04-25T06:20:58.556Z,38.74
2019-04-25T06:23:46.118Z,37.93
2019-04-25T06:26:23.032Z,40.61
2019-04-25T06:28:53.710Z,39.47
2019-04-25T06:31:13.799Z,38.56
2019-04-25T06:33:43.231Z,40.15
2019-04-25T06:36:11.226Z,39.31
2019-04-25T06:38:38.979Z,39.96
2019-04-25T06:41:10.285Z,39.35
2019-04-25T06:43:40.776Z,39.59
2019-04-25T06:46:24.787Z,38.43
2019-04-25T06:49:03.420Z,39.45
2019-04-25T06:51:50.262Z,39.49
2019-04-25T06:54:29.791Z,40.04
2019-04-25T06:56:53.634Z,38.41
2019-04-25T06:59:23.020Z,39.03
2019-04-25T07:01:50.907Z,39.04
2019-04-25T07:04:18.663Z,39.05
2019-04-25T07:06:46.582Z,39.11
2019-04-25T07:09:14.748Z,39.15
2019-04-25T07:11:44.067Z,39.46
2019-04-25T07:14:12.082Z,39.34
2019-04-25T07:16:39.806Z,39.37
2019-04-25T07:19:07.514Z,39.51
2019-04-25T07:21:35.637Z,39.59
2019-04-25T07:24:04.149Z,39.63
2019-04-25T07:26:56.902Z,39.56
2019-04-25T07:29:49.526Z,39.79
2019-04-25T07:32:24.621Z,39.92
2019-04-25T07:34:53.619Z,39.55
2019-04-25T07:37:24.174Z,39.66
2019-04-25T07:39:57.486Z,39.67
2019-04-25T07:42:25.921Z,39.64
2019-04-25T07:44:55.188Z,39.76
2019-04-25T07:47:24.232Z,39.97
2019-04-25T07:49:52.147Z,40.11
2019-04-25T07:52:19.862Z,40.56
2019-04-25T07:54:47.613Z,41.04
2019-04-25T07:57:15.392Z,40.67
2019-04-25T07:59:43.671Z,40.75
2019-04-25T08:02:13.261Z,40.87
2019-04-25T08:04:40.987Z,40.66
2019-04-25T08:07:08.706Z,40.67
2019-04-25T08:09:37.057Z,40.43
2019-04-25T08:12:05.634Z,40.66
2019-04-25T08:14:54.717Z,40.89
2019-04-25T08:17:40.476Z,40.90
2019-04-25T08:20:08.363Z,40.57
2019-04-25T08:22:50.095Z,40.99
2019-04-25T08:25:06.034Z,40.65
2019-04-25T08:27:34.769Z,41.13
2019-04-25T08:30:04.332Z,41.12
2019-04-25T08:32:37.708Z,41.45
2019-04-25T08:35:07.610Z,40.81
2019-04-25T08:37:36.540Z,40.76
2019-04-25T08:40:04.604Z,40.71
2019-04-25T08:42:33.956Z,41.03
2019-04-25T08:45:03.572Z,40.81
2019-04-25T08:47:31.427Z,40.43
2019-04-25T08:50:04.322Z,40.60
2019-04-25T08:52:32.047Z,40.20
2019-04-25T08:55:04.353Z,40.18
2019-04-25T08:57:49.921Z,39.88
2019-04-25T09:00:25.642Z,40.32
2019-04-25T09:02:57.516Z,40.68
2019-04-25T09:05:29.931Z,40.75
2019-04-25T09:07:57.830Z,40.45
2019-04-25T09:10:25.555Z,40.16
2019-04-25T09:12:53.718Z,40.31
2019-04-25T09:15:21.809Z,40.12
2019-04-25T09:17:49.579Z,40.42
2019-04-25T09:20:17.314Z,40.54
2019-04-25T09:22:45.556Z,40.34
2019-04-25T09:25:13.837Z,40.37
2019-04-25T09:27:49.881Z,40.71
2019-04-25T09:30:14.515Z,40.60
2019-04-25T09:32:42.931Z,40.28
2019-04-25T09:35:13.562Z,40.36
2019-04-25T09:37:41.086Z,40.06
2019-04-25T09:40:14.050Z,40.25
2019-04-25T09:42:43.813Z,39.96
2019-04-25T09:45:48.637Z,39.29
2019-04-25T09:48:23.179Z,40.17
2019-04-25T09:50:55.298Z,39.42
2019-04-25T09:53:25.815Z,39.66
2019-04-25T09:56:14.662Z,39.74
2019-04-25T09:58:57.846Z,39.74
2019-04-25T10:01:26.391Z,39.58
2019-04-25T10:03:54.423Z,39.83
2019-04-25T10:06:23.366Z,39.80
2019-04-25T10:08:51.204Z,39.51
2019-04-25T10:11:19.011Z,39.36
2019-04-25T10:13:48.826Z,38.94
2019-04-25T10:16:16.557Z,39.08
2019-04-25T10:18:44.715Z,39.00
2019-04-25T10:21:14.630Z,38.85
2019-04-25T10:23:45.006Z,38.84
2019-04-25T10:26:12.093Z,39.17
2019-04-25T10:28:54.140Z,38.83
2019-04-25T10:31:16.778Z,38.37
2019-04-25T10:33:46.677Z,38.27
2019-04-25T10:36:14.448Z,38.53
2019-04-25T10:38:42.442Z,38.43
2019-04-25T10:41:10.784Z,38.11
2019-04-25T10:43:39.515Z,38.23
2019-04-25T10:46:08.113Z,39.09
2019-04-25T10:48:36.154Z,39.24
2019-04-25T10:51:04.217Z,39.02
2019-04-25T10:53:33.731Z,38.93
2019-04-25T10:56:03.746Z,38.36
2019-04-25T10:58:31.177Z,38.42
2019-04-25T11:00:58.982Z,38.11
2019-04-25T11:03:45.818Z,38.18
2019-04-25T11:06:15.794Z,38.26
2019-04-25T11:08:43.531Z,38.05
2019-04-25T11:11:11.231Z,38.11
2019-04-25T11:13:39.068Z,37.89
2019-04-25T11:16:07.577Z,37.90
2019-04-25T11:18:35.319Z,37.65
2019-04-25T11:21:05.750Z,37.28
2019-04-25T11:23:32.609Z,37.41
2019-04-25T11:26:00.363Z,37.41
2019-04-25T11:28:28.069Z,37.38
2019-04-25T11:30:55.899Z,37.17
2019-04-25T11:33:34.101Z,37.19
2019-04-25T11:36:01.845Z,36.85
2019-04-25T11:38:54.766Z,36.79
2019-04-25T11:41:24.261Z,36.46
2019-04-25T11:43:52.108Z,36.58
2019-04-25T11:46:19.851Z,36.71
2019-04-25T11:48:48.174Z,36.36
2019-04-25T11:51:16.120Z,36.42
2019-04-25T11:53:45.085Z,35.99
2019-04-25T11:56:19.548Z,35.46
2019-04-25T11:58:48.113Z,35.04
2019-04-25T12:01:17.083Z,34.57
2019-04-25T12:03:46.602Z,34.59
2019-04-25T12:06:14.296Z,34.55
2019-04-25T12:08:42.033Z,35.08
2019-04-25T12:11:09.891Z,34.87
2019-04-25T12:13:37.638Z,34.89
2019-04-25T12:16:05.427Z,34.54
2019-04-25T12:18:33.868Z,34.56
2019-04-25T12:21:04.148Z,34.79
2019-04-25T12:23:33.939Z,34.56
2019-04-25T12:26:03.791Z,34.77
2019-04-25T12:28:33.788Z,34.37
2019-04-25T12:31:01.897Z,34.62
2019-04-25T12:33:30.354Z,34.37
2019-04-25T12:35:58.708Z,34.74
2019-04-25T12:38:27.053Z,34.87
2019-04-25T12:40:55.351Z,34.90
2019-04-25T12:43:25.228Z,35.16
2019-04-25T12:46:20.850Z,35.08
2019-04-25T12:48:49.522Z,35.13
2019-04-25T12:51:18.283Z,35.20
2019-04-25T12:53:47.974Z,35.42
2019-04-25T12:56:16.218Z,35.06
2019-04-25T12:58:44.374Z,34.88
2019-04-25T13:01:12.506Z,34.68
2019-04-25T13:03:40.715Z,35.12
2019-04-25T13:06:08.833Z,35.21
2019-04-25T13:08:36.825Z,35.09
2019-04-25T13:11:09.886Z,35.37
2019-04-25T13:13:34.753Z,35.01
2019-04-25T13:16:04.364Z,34.69
2019-04-25T13:18:32.911Z,34.69
2019-04-25T13:21:01.470Z,34.55
2019-04-25T13:23:31.942Z,34.60
2019-04-25T13:26:00.019Z,33.56
2019-04-25T13:28:50.261Z,34.26
2019-04-25T13:31:56.134Z,33.83
2019-04-25T13:34:45.874Z,33.77
2019-04-25T13:37:14.533Z,32.97
2019-04-25T13:39:44.180Z,33.66
2019-04-25T13:42:14.358Z,33.24
2019-04-25T13:44:44.278Z,33.36
2019-04-25T13:47:14.048Z,33.39
2019-04-25T13:49:42.749Z,33.20
2019-04-25T13:52:11.024Z,33.44
2019-04-25T13:54:39.101Z,33.48
2019-04-25T13:57:07.147Z,33.16
2019-04-25T13:59:35.294Z,33.30
2019-04-25T14:02:06.111Z,33.58
2019-04-25T14:04:35.765Z,33.79
2019-04-25T14:07:04.715Z,33.29
2019-04-25T14:09:34.774Z,33.17
2019-04-25T14:12:04.018Z,32.99
2019-04-25T14:14:35.843Z,32.23
2019-04-25T14:17:21.641Z,32.93
2019-04-25T14:20:00.619Z,32.80
2019-04-25T14:22:30.327Z,32.82
2019-04-25T14:25:06.861Z,33.07
2019-04-25T14:27:35.859Z,32.91
2019-04-25T14:30:04.693Z,32.96
2019-04-25T14:32:35.084Z,33.07
2019-04-25T14:35:07.286Z,32.88
2019-04-25T14:37:43.952Z,33.04
2019-04-25T14:40:10.507Z,33.06
2019-04-25T14:42:39.211Z,33.20
2019-04-25T14:45:08.162Z,32.97
2019-04-25T14:47:48.147Z,32.80
2019-04-25T14:50:20.125Z,32.51
2019-04-25T14:53:00.041Z,32.74
2019-04-25T14:55:46.051Z,32.85
2019-04-25T14:58:15.926Z,33.07
2019-04-25T15:00:45.169Z,32.69
2019-04-25T15:03:13.865Z,32.31
2019-04-25T15:05:46.190Z,32.52
2019-04-25T15:08:14.558Z,32.33
2019-04-25T15:10:42.689Z,32.45
2019-04-25T15:13:10.641Z,32.32
2019-04-25T15:15:38.670Z,31.95
2019-04-25T15:18:06.850Z,32.01
2019-04-25T15:20:35.122Z,32.02
2019-04-25T15:23:03.117Z,31.71
2019-04-25T15:25:31.851Z,31.59
2019-04-25T15:28:00.094Z,31.44
2019-04-25T15:30:30.951Z,31.29
2019-04-25T15:32:59.088Z,31.66
2019-04-25T15:35:34.491Z,31.32
2019-04-25T15:38:07.088Z,31.13
2019-04-25T15:40:41.192Z,31.25
2019-04-25T15:43:34.211Z,31.40
2019-04-25T15:46:17.403Z,31.21
2019-04-25T15:48:47.407Z,31.21
2019-04-25T15:51:15.778Z,31.08
2019-04-25T15:53:44.122Z,30.94
2019-04-25T15:56:12.505Z,30.89
2019-04-25T15:58:43.417Z,30.74
2019-04-25T16:01:11.637Z,30.96
2019-04-25T16:03:39.897Z,30.58
2019-04-25T16:06:09.140Z,30.69
2019-04-25T16:08:37.855Z,30.52
2019-04-25T16:11:42.687Z,30.42
2019-04-25T16:14:10.541Z,30.67
2019-04-25T16:16:38.408Z,31.04
2019-04-25T16:19:06.459Z,31.07
2019-04-25T16:21:34.274Z,30.76
2019-04-25T16:24:02.313Z,30.63
2019-04-25T16:26:30.196Z,31.00
2019-04-25T16:28:57.992Z,30.82
2019-04-25T16:31:26.338Z,31.48
2019-04-25T16:33:54.106Z,31.82
2019-04-25T16:36:22.048Z,31.64
2019-04-25T16:38:50.221Z,31.95
2019-04-25T16:41:18.507Z,31.61
2019-04-25T16:43:49.584Z,31.62
2019-04-25T16:46:18.029Z,31.85
2019-04-25T16:48:45.940Z,31.68
2019-04-25T16:51:13.920Z,31.12
2019-04-25T16:53:42.259Z,31.55
2019-04-25T16:56:10.497Z,31.81
2019-04-25T16:58:38.697Z,31.68
2019-04-25T17:01:10.842Z,31.87
2019-04-25T17:03:39.417Z,31.73
2019-04-25T17:06:08.283Z,31.78
2019-04-25T17:08:36.337Z,31.93
2019-04-25T17:11:04.793Z,31.96
2019-04-25T17:13:34.220Z,32.04
2019-04-25T17:16:16.040Z,32.17
2019-04-25T17:19:02.906Z,31.81
2019-04-25T17:21:32.389Z,32.23
2019-04-25T17:24:00.435Z,32.13
2019-04-25T17:26:28.253Z,31.86
2019-04-25T17:28:58.308Z,31.89
2019-04-25T17:31:33.964Z,32.02
2019-04-25T17:34:21.102Z,32.15
2019-04-25T17:37:14.582Z,32.05
2019-04-25T17:39:44.110Z,32.12
2019-04-25T17:42:11.870Z,32.14
2019-04-25T17:44:40.531Z,32.04
2019-04-25T17:47:08.404Z,32.24
2019-04-25T17:49:36.797Z,32.40
2019-04-25T17:52:05.001Z,32.42
2019-04-25T17:54:32.925Z,32.28
2019-04-25T17:57:00.748Z,32.51
2019-04-25T17:59:28.713Z,32.60
2019-04-25T18:01:56.652Z,32.41
2019-04-25T18:04:24.419Z,32.80
2019-04-25T18:06:52.188Z,32.79
2019-04-25T18:09:20.062Z,32.96
2019-04-25T18:11:53.099Z,32.53
2019-04-25T18:14:21.196Z,32.74
2019-04-25T18:16:49.274Z,31.80
2019-04-25T18:19:20.767Z,32.40
2019-04-25T18:21:48.666Z,32.38
2019-04-25T18:27:26.062Z,32.63
2019-04-25T18:29:55.081Z,32.42
2019-04-25T18:32:24.039Z,32.40
2019-04-25T18:35:05.756Z,32.59
2019-04-25T18:38:00.412Z,32.41
2019-04-25T18:40:33.497Z,32.22
2019-04-25T18:43:32.409Z,32.25
2019-04-25T18:46:04.505Z,32.37
2019-04-25T18:48:51.609Z,32.45
2019-04-25T18:51:22.523Z,32.20
2019-04-25T18:57:37.562Z,31.99
2019-04-25T19:00:37.789Z,32.30
2019-04-25T19:03:34.388Z,32.36
2019-04-25T19:06:04.533Z,32.21
2019-04-25T19:08:32.300Z,31.95
2019-04-25T19:11:00.190Z,31.96
2019-04-25T19:13:27.988Z,31.90
2019-04-25T19:15:55.875Z,31.63
2019-04-25T19:18:23.764Z,32.34
2019-04-25T19:20:52.370Z,32.34
2019-04-25T19:23:21.819Z,32.43
2019-04-25T19:25:49.677Z,32.26
2019-04-25T19:28:17.452Z,32.43
2019-04-25T19:30:45.425Z,32.41
2019-04-25T19:33:13.181Z,32.79
2019-04-25T19:35:41.698Z,32.50
2019-04-25T19:38:09.601Z,32.16
2019-04-25T19:40:48.196Z,32.76
2019-04-25T19:43:24.147Z,32.90
2019-04-25T19:45:51.913Z,32.85
2019-04-25T19:48:19.781Z,33.03
2019-04-25T19:50:50.570Z,32.46
2019-04-25T19:53:17.178Z,32.77
2019-04-25T19:55:45.474Z,33.16
2019-04-25T19:58:13.379Z,33.00
2019-04-25T20:00:43.131Z,32.83
2019-04-25T20:03:19.888Z,32.43
2019-04-25T20:05:59.405Z,32.51
2019-04-25T20:08:45.182Z,33.45
2019-04-25T20:11:19.559Z,33.40
2019-04-25T20:13:56.071Z,33.05
2019-04-25T20:16:23.881Z,33.22
2019-04-25T20:18:51.872Z,32.51
2019-04-25T20:21:20.202Z,32.68
2019-04-25T20:23:48.072Z,34.03
2019-04-25T20:26:15.937Z,33.67
2019-04-25T20:28:44.881Z,33.22
2019-04-25T20:31:12.842Z,33.22
2019-04-25T20:33:40.609Z,34.11
2019-04-25T20:36:17.711Z,34.16
2019-04-25T20:38:37.864Z,33.07
2019-04-25T20:41:05.744Z,34.09
2019-04-25T20:43:33.676Z,33.12
2019-04-25T20:46:01.496Z,33.28
2019-04-25T20:48:32.221Z,33.08
2019-04-25T20:51:00.044Z,34.48
2019-04-25T20:53:27.867Z,33.73
2019-04-25T20:55:55.666Z,33.31
2019-04-25T20:58:23.424Z,32.88
2019-04-25T21:00:54.000Z,33.32
2019-04-25T21:03:21.769Z,33.73
2019-04-25T21:05:53.049Z,33.18
2019-04-25T21:08:20.983Z,33.10
2019-04-25T21:10:50.454Z,33.93
2019-04-25T21:13:24.365Z,34.41
2019-04-25T21:16:05.063Z,33.77
2019-04-25T21:18:55.260Z,34.09
2019-04-25T21:21:23.045Z,33.45
2019-04-25T21:23:51.822Z,34.03
2019-04-25T21:26:20.397Z,34.80
2019-04-25T21:28:48.173Z,35.26
2019-04-25T21:31:16.105Z,33.81
2019-04-25T21:33:43.929Z,33.86
2019-04-25T21:36:11.948Z,33.22
2019-04-25T21:38:40.204Z,34.21
2019-04-25T21:41:25.874Z,35.15
2019-04-25T21:43:59.005Z,34.24
2019-04-25T21:46:27.844Z,33.58
2019-04-25T21:48:56.861Z,34.05
2019-04-25T21:51:33.999Z,35.39
2019-04-25T21:54:04.434Z,33.79
2019-04-25T21:56:32.555Z,34.74
2019-04-25T21:59:00.466Z,34.16
2019-04-25T22:01:31.646Z,34.57
2019-04-25T22:03:59.648Z,34.69
2019-04-25T22:06:28.649Z,34.46
2019-04-25T22:08:56.674Z,34.51
2019-04-25T22:11:24.922Z,34.51
2019-04-25T22:13:52.964Z,34.30
2019-04-25T22:16:21.120Z,34.15
2019-04-25T22:18:49.163Z,34.22
2019-04-25T22:21:17.114Z,34.20
2019-04-25T22:23:45.344Z,34.11
2019-04-25T22:26:13.195Z,34.89
2019-04-25T22:28:41.339Z,35.18
2019-04-25T22:31:14.304Z,34.89
2019-04-25T22:33:51.210Z,35.39
2019-04-25T22:36:21.117Z,34.98
2019-04-25T22:39:08.678Z,35.33
2019-04-25T22:41:37.007Z,34.43
2019-04-25T22:44:06.075Z,35.22
2019-04-25T22:46:34.254Z,35.66
2019-04-25T22:49:03.446Z,35.14
2019-04-25T22:51:31.404Z,35.08
2019-04-25T22:53:59.503Z,34.77
2019-04-25T22:56:27.344Z,33.91
2019-04-25T22:58:55.328Z,34.62
2019-04-25T23:01:45.301Z,35.07
2019-04-25T23:04:18.972Z,34.87
2019-04-25T23:06:46.816Z,34.80
2019-04-25T23:09:14.579Z,35.16
2019-04-25T23:11:42.615Z,35.22
2019-04-25T23:14:10.943Z,35.43
2019-04-25T23:16:38.853Z,35.55
2019-04-25T23:19:07.280Z,34.86
2019-04-25T23:21:35.381Z,35.46
2019-04-25T23:24:03.460Z,35.67
2019-04-25T23:26:51.248Z,35.38
2019-04-25T23:29:19.100Z,36.23
2019-04-25T23:31:46.888Z,34.98
2019-04-25T23:34:15.264Z,34.38
2019-04-25T23:36:43.093Z,35.56
2019-04-25T23:39:11.551Z,35.30
2019-04-25T23:41:39.688Z,35.02
2019-04-25T23:44:07.951Z,34.87
2019-04-25T23:46:36.135Z,34.75
2019-04-25T23:49:04.801Z,35.29
2019-04-25T23:51:32.627Z,35.46
2019-04-25T23:54:00.768Z,34.82
2019-04-25T23:56:28.560Z,36.29
2019-04-25T23:58:56.576Z,35.44
